createdAt,value
2023-02-12T00:00:08.253Z,16.85
2023-02-12T00:02:35.072Z,15.32
2023-02-12T00:05:01.786Z,16.83
2023-02-12T00:07:31.359Z,16.35
2023-02-12T00:09:58.028Z,16.20
2023-02-12T00:12:24.656Z,18.15
2023-02-12T00:14:51.386Z,19.30
2023-02-12T00:17:18.096Z,17.05
2023-02-12T00:19:44.900Z,18.02
2023-02-12T00:22:11.526Z,17.33
2023-02-12T00:24:38.231Z,16.75
2023-02-12T00:27:04.907Z,17.77
2023-02-12T00:29:31.521Z,21.45
2023-02-12T00:31:58.297Z,26.92
2023-02-12T00:34:25.012Z,24.73
2023-02-12T00:36:51.605Z,20.58
2023-02-12T00:39:18.314Z,19.33
2023-02-12T00:41:45.074Z,18.52
2023-02-12T00:44:11.704Z,18.30
2023-02-12T00:49:20.399Z,18.05
2023-02-12T00:51:47.096Z,19.17
2023-02-12T00:54:15.026Z,18.52
2023-02-12T00:56:41.935Z,16.23
2023-02-12T00:59:08.703Z,18.88
2023-02-12T01:01:35.544Z,18.58
2023-02-12T01:04:02.350Z,17.73
2023-02-12T01:06:29.067Z,17.25
2023-02-12T01:08:55.843Z,17.58
2023-02-12T01:11:22.534Z,18.13
2023-02-12T01:13:49.308Z,17.92
2023-02-12T01:16:20.499Z,18.25
2023-02-12T01:18:48.169Z,19.45
2023-02-12T01:21:16.266Z,19.73
2023-02-12T01:23:54.629Z,19.70
2023-02-12T01:26:22.536Z,19.88
2023-02-12T01:28:52.516Z,20.45
2023-02-12T01:31:21.660Z,20.83
2023-02-12T01:33:53.242Z,22.58
2023-02-12T01:36:20.744Z,22.95
2023-02-12T01:38:48.018Z,22.83
2023-02-12T01:41:27.157Z,25.52
2023-02-12T01:44:19.593Z,24.20
2023-02-12T01:46:48.171Z,22.35
2023-02-12T01:49:31.686Z,21.52
2023-02-12T01:52:05.666Z,22.55
2023-02-12T01:54:35.839Z,30.27
2023-02-12T01:57:26.256Z,36.10
2023-02-12T02:00:08.170Z,24.00
2023-02-12T02:02:36.311Z,25.05
2023-02-12T02:05:05.526Z,24.58
2023-02-12T02:07:32.317Z,21.05
2023-02-12T02:09:59.863Z,21.05
2023-02-12T02:12:46.138Z,23.02
2023-02-12T02:15:12.845Z,22.88
2023-02-12T02:18:17.744Z,22.65
2023-02-12T02:21:14.861Z,20.88
2023-02-12T02:23:59.618Z,19.88
2023-02-12T02:26:57.077Z,21.25
2023-02-12T02:29:27.085Z,21.27
2023-02-12T02:32:15.065Z,20.42
2023-02-12T02:35:00.539Z,18.45
2023-02-12T02:37:40.479Z,20.35
2023-02-12T02:40:10.304Z,19.13
2023-02-12T02:42:49.220Z,18.90
2023-02-12T02:45:35.818Z,19.85
2023-02-12T02:48:35.087Z,19.25
2023-02-12T02:51:23.783Z,18.88
2023-02-12T02:54:27.978Z,18.90
2023-02-12T02:57:18.138Z,23.23
2023-02-12T02:59:54.203Z,19.35
2023-02-12T03:02:35.129Z,20.75
2023-02-12T03:05:09.154Z,19.85
2023-02-12T03:08:03.081Z,19.35
2023-02-12T03:10:58.409Z,22.58
2023-02-12T03:13:31.397Z,19.13
2023-02-12T03:16:07.884Z,18.83
2023-02-12T03:18:42.687Z,19.33
2023-02-12T03:21:17.165Z,24.00
2023-02-12T03:24:19.383Z,22.52
2023-02-12T03:26:54.469Z,21.38
2023-02-12T03:29:21.149Z,25.85
2023-02-12T03:32:24.417Z,25.63
2023-02-12T03:34:56.399Z,36.10
2023-02-12T03:37:32.615Z,35.80
2023-02-12T03:41:00.461Z,36.83
2023-02-12T03:43:51.080Z,64.10
2023-02-12T03:46:33.658Z,49.85
2023-02-12T03:49:14.430Z,27.67
2023-02-12T03:51:44.591Z,33.80
2023-02-12T03:54:14.102Z,41.33
2023-02-12T03:56:52.266Z,42.67
2023-02-12T03:59:26.334Z,46.78
2023-02-12T04:01:55.585Z,56.83
2023-02-12T04:04:24.077Z,51.20
2023-02-12T04:06:54.819Z,48.28
2023-02-12T04:09:24.296Z,61.30
2023-02-12T04:12:09.750Z,49.58
2023-02-12T04:14:42.457Z,42.00
2023-02-12T04:17:40.681Z,60.25
2023-02-12T04:20:36.078Z,34.92
2023-02-12T04:23:16.626Z,25.40
2023-02-12T04:25:59.146Z,25.88
2023-02-12T04:28:38.408Z,30.98
2023-02-12T04:31:07.648Z,31.13
2023-02-12T04:33:48.999Z,30.33
2023-02-12T04:36:30.938Z,29.63
2023-02-12T04:39:06.662Z,32.25
2023-02-12T04:41:33.577Z,33.65
2023-02-12T04:44:26.342Z,35.85
2023-02-12T04:46:53.508Z,30.85
2023-02-12T04:49:22.498Z,30.63
2023-02-12T04:51:50.189Z,32.38
2023-02-12T04:54:18.905Z,33.80
2023-02-12T04:56:46.176Z,27.30
2023-02-12T04:59:13.656Z,26.90
2023-02-12T05:01:41.762Z,26.15
2023-02-12T05:04:10.685Z,25.80
2023-02-12T05:06:39.622Z,26.60
2023-02-12T05:09:07.675Z,27.10
2023-02-12T05:11:34.732Z,27.55
2023-02-12T05:14:01.749Z,29.08
2023-02-12T05:16:28.484Z,28.52
2023-02-12T05:18:55.306Z,24.65
2023-02-12T05:21:22.178Z,21.23
2023-02-12T05:23:49.219Z,16.17
2023-02-12T05:26:20.704Z,17.88
2023-02-12T05:28:57.724Z,18.23
2023-02-12T05:31:24.749Z,19.33
2023-02-12T05:33:51.517Z,19.58
2023-02-12T05:36:43.252Z,21.40
2023-02-12T05:39:11.023Z,23.33
2023-02-12T05:41:37.705Z,24.73
2023-02-12T05:47:12.614Z,25.15
2023-02-12T05:49:39.307Z,23.83
2023-02-12T05:52:16.771Z,23.70
2023-02-12T05:54:56.464Z,25.38
2023-02-12T05:57:23.159Z,25.38
2023-02-12T05:59:49.814Z,25.13
2023-02-12T06:02:16.500Z,26.30
2023-02-12T06:04:43.141Z,27.08
2023-02-12T06:07:09.790Z,24.73
2023-02-12T06:09:37.380Z,24.42
2023-02-12T06:12:04.425Z,24.98
2023-02-12T06:14:32.096Z,25.05
2023-02-12T06:16:58.896Z,25.17
2023-02-12T06:22:06.352Z,24.35
2023-02-12T06:24:33.176Z,23.83
2023-02-12T06:26:59.885Z,26.42
2023-02-12T06:29:26.508Z,26.00
2023-02-12T06:31:53.272Z,26.38
2023-02-12T06:34:19.991Z,27.08
2023-02-12T06:37:01.949Z,27.23
2023-02-12T06:39:28.607Z,27.95
2023-02-12T06:41:55.283Z,28.95
2023-02-12T06:44:21.953Z,26.67
2023-02-12T06:46:48.907Z,29.60
2023-02-12T06:49:16.603Z,27.63
2023-02-12T06:51:53.245Z,28.08
2023-02-12T06:54:19.943Z,26.45
2023-02-12T06:56:46.642Z,27.88
2023-02-12T06:59:27.193Z,29.08
2023-02-12T07:01:53.839Z,28.08
2023-02-12T07:04:21.615Z,27.33
2023-02-12T07:06:48.344Z,27.00
2023-02-12T07:09:17.053Z,28.05
2023-02-12T07:11:43.751Z,29.10
2023-02-12T07:14:17.083Z,29.35
2023-02-12T07:16:43.943Z,32.35
2023-02-12T07:19:13.467Z,26.45
2023-02-12T07:21:40.160Z,27.70
2023-02-12T07:24:07.571Z,26.30
2023-02-12T07:26:34.381Z,24.25
2023-02-12T07:29:12.353Z,22.83
2023-02-12T07:31:39.177Z,24.42
2023-02-12T07:34:05.976Z,24.75
2023-02-12T07:36:43.033Z,23.88
2023-02-12T07:39:11.742Z,25.17
2023-02-12T07:41:38.531Z,25.10
2023-02-12T07:44:10.097Z,24.85
2023-02-12T07:46:38.754Z,23.83
2023-02-12T07:49:08.125Z,25.48
2023-02-12T07:51:41.361Z,22.35
2023-02-12T07:54:08.283Z,22.67
2023-02-12T07:56:37.541Z,22.15
2023-02-12T07:59:07.606Z,23.48
2023-02-12T08:01:36.750Z,22.65
2023-02-12T08:04:09.568Z,21.10
2023-02-12T08:06:38.881Z,20.80
2023-02-12T08:09:17.265Z,19.70
2023-02-12T08:11:44.576Z,20.08
2023-02-12T08:14:13.140Z,18.13
2023-02-12T08:16:41.108Z,18.23
2023-02-12T08:19:18.113Z,18.77
2023-02-12T08:21:55.585Z,16.08
2023-02-12T08:24:23.382Z,16.80
2023-02-12T08:26:51.045Z,17.08
2023-02-12T08:29:24.126Z,18.23
2023-02-12T08:31:55.257Z,19.33
2023-02-12T08:34:24.562Z,17.38
2023-02-12T08:37:05.421Z,17.83
2023-02-12T08:39:32.383Z,19.02
2023-02-12T08:42:01.544Z,18.25
2023-02-12T08:44:36.552Z,17.92
2023-02-12T08:47:21.895Z,19.30
2023-02-12T08:49:57.047Z,21.65
2023-02-12T08:52:23.689Z,19.83
2023-02-12T08:54:50.461Z,22.23
2023-02-12T08:57:28.178Z,24.38
2023-02-12T08:59:54.877Z,23.20
2023-02-12T09:02:21.522Z,23.92
2023-02-12T09:04:54.128Z,23.30
2023-02-12T09:07:23.818Z,23.42
2023-02-12T09:09:50.440Z,21.83
2023-02-12T09:12:17.101Z,21.00
2023-02-12T09:14:49.737Z,22.38
2023-02-12T09:17:16.381Z,16.73
2023-02-12T09:19:43.023Z,17.25
2023-02-12T09:22:09.687Z,16.55
2023-02-12T09:24:37.474Z,16.25
2023-02-12T09:27:05.335Z,16.58
2023-02-12T09:29:35.014Z,15.32
2023-02-12T09:32:05.507Z,17.25
2023-02-12T09:34:37.115Z,13.90
2023-02-12T09:37:03.772Z,16.13
2023-02-12T09:39:30.736Z,15.75
2023-02-12T09:42:24.697Z,14.13
2023-02-12T09:45:07.034Z,14.05
2023-02-12T09:47:50.679Z,14.05
2023-02-12T09:50:32.845Z,12.32
2023-02-12T09:53:00.213Z,13.63
2023-02-12T09:55:31.442Z,13.27
2023-02-12T09:58:01.003Z,10.70
2023-02-12T10:00:31.687Z,11.18
2023-02-12T10:03:05.435Z,11.82
2023-02-12T10:05:39.402Z,11.55
2023-02-12T10:08:59.979Z,11.38
2023-02-12T10:11:53.100Z,12.10
2023-02-12T10:14:38.411Z,12.30
2023-02-12T10:17:22.734Z,14.45
2023-02-12T10:20:34.794Z,13.07
2023-02-12T10:23:04.482Z,12.98
2023-02-12T10:25:52.212Z,12.65
2023-02-12T10:28:32.821Z,14.02
2023-02-12T10:31:03.693Z,14.38
2023-02-12T10:33:46.139Z,13.85
2023-02-12T10:36:37.977Z,14.77
2023-02-12T10:39:35.195Z,15.00
2023-02-12T10:42:04.193Z,15.02
2023-02-12T10:44:31.868Z,16.05
2023-02-12T10:46:58.585Z,15.07
2023-02-12T10:49:25.567Z,14.55
2023-02-12T10:52:16.538Z,13.20
2023-02-12T10:54:45.883Z,12.65
2023-02-12T10:57:30.826Z,12.77
2023-02-12T11:00:33.640Z,13.10
2023-02-12T11:05:30.034Z,13.55
2023-02-12T11:07:59.559Z,13.18
2023-02-12T11:10:31.981Z,13.45
2023-02-12T11:13:02.749Z,13.50
2023-02-12T11:15:47.929Z,14.93
2023-02-12T11:18:26.251Z,15.07
2023-02-12T11:21:01.087Z,15.68
2023-02-12T11:23:29.969Z,16.63
2023-02-12T11:26:06.510Z,15.32
2023-02-12T11:28:36.278Z,15.38
2023-02-12T11:31:14.300Z,16.25
2023-02-12T11:33:41.030Z,16.00
2023-02-12T11:36:25.814Z,14.02
2023-02-12T11:38:58.266Z,13.85
2023-02-12T11:41:38.897Z,11.82
2023-02-12T11:44:20.981Z,9.50
2023-02-12T11:46:55.605Z,10.75
2023-02-12T11:49:29.697Z,8.85
2023-02-12T11:51:57.786Z,9.88
2023-02-12T11:54:28.319Z,8.70
2023-02-12T11:56:57.929Z,9.43
2023-02-12T11:59:42.734Z,10.30
2023-02-12T12:02:22.972Z,9.07
2023-02-12T12:04:53.588Z,9.93
2023-02-12T12:07:30.273Z,9.73
2023-02-12T12:10:25.274Z,9.43
2023-02-12T12:12:56.857Z,9.27
2023-02-12T12:15:56.811Z,9.05
2023-02-12T12:19:03.623Z,9.73
2023-02-12T12:21:45.847Z,10.05
2023-02-12T12:24:20.649Z,9.85
2023-02-12T12:27:00.221Z,10.23
2023-02-12T12:29:38.576Z,11.18
2023-02-12T12:32:07.208Z,11.63
2023-02-12T12:34:34.050Z,12.25
2023-02-12T12:37:09.740Z,12.70
2023-02-12T12:39:52.381Z,12.40
2023-02-12T12:42:28.473Z,12.43
2023-02-12T12:45:22.606Z,13.13
2023-02-12T12:48:22.623Z,12.38
2023-02-12T12:51:16.312Z,12.52
2023-02-12T12:53:51.424Z,11.88
2023-02-12T12:56:42.315Z,12.43
2023-02-12T12:59:37.779Z,13.48
2023-02-12T13:02:36.517Z,12.93
2023-02-12T13:05:40.993Z,13.35
2023-02-12T13:08:19.683Z,14.20
2023-02-12T13:10:49.405Z,14.25
2023-02-12T13:13:39.488Z,14.15
2023-02-12T13:16:18.005Z,12.85
2023-02-12T13:19:26.023Z,13.15
2023-02-12T13:22:12.575Z,11.43
2023-02-12T13:24:49.836Z,9.88
2023-02-12T13:27:40.440Z,9.30
2023-02-12T13:30:18.416Z,8.25
2023-02-12T13:32:47.846Z,8.77
2023-02-12T13:35:23.473Z,8.82
2023-02-12T13:37:54.303Z,8.50
2023-02-12T13:40:26.604Z,7.60
2023-02-12T13:46:06.939Z,6.90
2023-02-12T13:48:52.571Z,6.85
2023-02-12T13:51:40.332Z,7.05
2023-02-12T13:54:10.257Z,7.22
2023-02-12T13:56:44.950Z,6.80
2023-02-12T13:59:30.632Z,7.03
2023-02-12T14:02:06.754Z,7.63
2023-02-12T14:04:46.676Z,10.27
2023-02-12T14:07:16.668Z,13.55
2023-02-12T14:09:46.576Z,8.75
2023-02-12T14:12:25.431Z,19.30
2023-02-12T14:15:04.448Z,7.18
2023-02-12T14:17:31.118Z,7.03
2023-02-12T14:20:06.814Z,6.90
2023-02-12T14:22:33.405Z,15.50
2023-02-12T14:25:23.160Z,9.50
2023-02-12T14:27:58.404Z,8.55
2023-02-12T14:30:27.968Z,9.70
2023-02-12T14:33:06.618Z,12.10
2023-02-12T14:35:39.968Z,6.95
2023-02-12T14:38:10.229Z,8.02
2023-02-12T14:40:40.300Z,6.25
2023-02-12T14:43:28.597Z,7.78
2023-02-12T14:45:58.129Z,7.85
2023-02-12T14:48:50.891Z,13.13
2023-02-12T14:51:35.881Z,6.57
2023-02-12T14:54:11.311Z,6.70
2023-02-12T14:56:47.561Z,7.70
2023-02-12T14:59:21.379Z,6.50
2023-02-12T15:01:50.197Z,8.02
2023-02-12T15:04:24.643Z,6.80
2023-02-12T15:07:08.353Z,6.25
2023-02-12T15:09:57.019Z,6.38
2023-02-12T15:12:37.003Z,5.75
2023-02-12T15:15:25.713Z,6.88
2023-02-12T15:18:00.213Z,6.45
2023-02-12T15:20:34.863Z,6.38
2023-02-12T15:23:03.120Z,6.53
2023-02-12T15:25:32.472Z,6.88
2023-02-12T15:28:21.487Z,7.60
2023-02-12T15:30:48.660Z,6.68
2023-02-12T15:33:26.740Z,6.25
2023-02-12T15:35:53.577Z,5.47
2023-02-12T15:38:25.995Z,5.78
2023-02-12T15:40:57.974Z,6.30
2023-02-12T15:43:31.436Z,6.07
2023-02-12T15:45:58.277Z,6.78
2023-02-12T15:48:32.011Z,6.38
2023-02-12T15:51:07.800Z,5.85
2023-02-12T15:53:36.562Z,6.05
2023-02-12T15:56:04.374Z,5.53
2023-02-12T15:58:39.179Z,5.63
2023-02-12T16:01:06.816Z,5.20
2023-02-12T16:03:37.011Z,4.97
2023-02-12T16:06:11.633Z,6.55
2023-02-12T16:08:39.651Z,5.65
2023-02-12T16:11:17.089Z,5.57
2023-02-12T16:13:53.054Z,7.38
2023-02-12T16:16:21.836Z,5.53
2023-02-12T16:19:22.125Z,12.52
2023-02-12T16:22:16.478Z,16.42
2023-02-12T16:24:50.119Z,20.85
2023-02-12T16:27:27.490Z,6.00
2023-02-12T16:30:09.724Z,5.40
2023-02-12T16:32:42.463Z,6.32
2023-02-12T16:35:12.030Z,6.20
2023-02-12T16:37:42.606Z,9.35
2023-02-12T16:40:12.237Z,7.20
2023-02-12T16:43:26.668Z,4.68
2023-02-12T16:46:04.046Z,7.82
2023-02-12T16:48:41.997Z,6.32
2023-02-12T16:51:21.443Z,11.57
2023-02-12T16:53:50.023Z,12.02
2023-02-12T16:56:18.899Z,5.68
2023-02-12T16:58:48.425Z,9.35
2023-02-12T17:01:19.242Z,7.13
2023-02-12T17:03:47.678Z,13.32
2023-02-12T17:06:14.930Z,14.90
2023-02-12T17:08:41.696Z,36.70
2023-02-12T17:11:11.159Z,12.25
2023-02-12T17:13:43.490Z,7.10
2023-02-12T17:18:41.306Z,11.43
2023-02-12T17:21:29.437Z,8.95
2023-02-12T17:23:56.222Z,9.93
2023-02-12T17:26:24.249Z,6.40
2023-02-12T17:28:51.072Z,11.52
2023-02-12T17:31:21.010Z,6.05
2023-02-12T17:33:47.748Z,5.18
2023-02-12T17:36:14.351Z,7.68
2023-02-12T17:38:41.045Z,5.68
2023-02-12T17:41:11.335Z,5.10
2023-02-12T17:43:38.189Z,7.05
2023-02-12T17:46:10.403Z,7.32
2023-02-12T17:51:06.360Z,6.30
2023-02-12T17:53:33.088Z,5.32
2023-02-12T17:55:59.759Z,4.72
2023-02-12T17:58:26.505Z,6.28
2023-02-12T18:00:53.191Z,5.10
2023-02-12T18:03:19.912Z,5.38
2023-02-12T18:05:47.000Z,4.47
2023-02-12T18:08:13.777Z,5.65
2023-02-12T18:10:41.765Z,4.50
2023-02-12T18:13:09.241Z,6.45
2023-02-12T18:15:36.605Z,5.57
2023-02-12T18:18:03.665Z,5.63
2023-02-12T18:20:30.329Z,5.57
2023-02-12T18:22:59.695Z,6.18
2023-02-12T18:25:26.361Z,4.97
2023-02-12T18:27:53.003Z,4.68
2023-02-12T18:30:19.866Z,5.30
2023-02-12T18:32:46.851Z,5.35
2023-02-12T18:35:14.721Z,5.70
2023-02-12T18:37:43.271Z,8.00
2023-02-12T18:40:10.779Z,7.15
2023-02-12T18:42:37.471Z,7.10
2023-02-12T18:45:04.671Z,7.50
2023-02-12T18:47:31.393Z,6.65
2023-02-12T18:49:58.098Z,7.80
2023-02-12T18:52:25.321Z,8.05
2023-02-12T18:54:53.117Z,8.32
2023-02-12T18:57:20.152Z,8.48
2023-02-12T18:59:52.264Z,8.50
2023-02-12T19:02:19.066Z,8.48
2023-02-12T19:04:45.801Z,8.23
2023-02-12T19:07:12.536Z,7.93
2023-02-12T19:09:39.245Z,7.68
2023-02-12T19:12:06.957Z,8.73
2023-02-12T19:14:34.311Z,9.02
2023-02-12T19:17:01.109Z,8.20
2023-02-12T19:19:28.308Z,8.93
2023-02-12T19:21:54.975Z,7.95
2023-02-12T19:24:21.883Z,8.50
2023-02-12T19:26:53.835Z,8.63
2023-02-12T19:29:20.756Z,7.70
2023-02-12T19:31:47.509Z,8.95
2023-02-12T19:34:19.810Z,9.15
2023-02-12T19:36:48.069Z,9.95
2023-02-12T19:39:17.614Z,9.07
2023-02-12T19:41:46.723Z,8.75
2023-02-12T19:44:18.067Z,8.82
2023-02-12T19:46:46.801Z,7.65
2023-02-12T19:49:20.632Z,8.38
2023-02-12T19:51:48.003Z,8.40
2023-02-12T19:54:16.528Z,8.63
2023-02-12T19:56:43.435Z,8.68
2023-02-12T19:59:17.314Z,8.95
2023-02-12T20:01:44.668Z,7.63
2023-02-12T20:04:13.768Z,9.07
2023-02-12T20:06:41.940Z,8.25
2023-02-12T20:09:10.484Z,8.80
2023-02-12T20:11:38.444Z,9.32
2023-02-12T20:14:10.591Z,8.77
2023-02-12T20:16:39.024Z,9.23
2023-02-12T20:19:16.641Z,8.88
2023-02-12T20:21:43.899Z,9.38
2023-02-12T20:24:10.865Z,9.45
2023-02-12T20:26:38.909Z,10.57
2023-02-12T20:29:05.857Z,9.80
2023-02-12T20:31:35.977Z,9.05
2023-02-12T20:34:08.032Z,10.68
2023-02-12T20:36:36.958Z,9.93
2023-02-12T20:39:05.481Z,10.30
2023-02-12T20:41:32.346Z,9.63
2023-02-12T20:44:01.018Z,10.27
2023-02-12T20:46:27.936Z,11.15
2023-02-12T20:48:55.111Z,10.27
2023-02-12T20:51:25.060Z,9.65
2023-02-12T20:53:53.969Z,9.10
2023-02-12T20:56:23.863Z,11.23
2023-02-12T20:58:51.293Z,11.13
2023-02-12T21:01:34.618Z,10.90
2023-02-12T21:04:10.056Z,10.80
2023-02-12T21:06:39.935Z,11.18
2023-02-12T21:09:09.708Z,11.60
2023-02-12T21:11:37.482Z,10.85
2023-02-12T21:14:20.874Z,10.70
2023-02-12T21:16:48.498Z,12.23
2023-02-12T21:19:15.369Z,11.57
2023-02-12T21:21:45.095Z,12.30
2023-02-12T21:24:15.018Z,12.02
2023-02-12T21:26:41.856Z,11.90
2023-02-12T21:29:08.545Z,11.68
2023-02-12T21:31:38.096Z,13.55
2023-02-12T21:34:06.849Z,12.50
2023-02-12T21:36:36.405Z,13.18
2023-02-12T21:39:05.804Z,13.95
2023-02-12T21:41:35.620Z,14.20
2023-02-12T21:44:07.324Z,14.77
2023-02-12T21:46:35.266Z,14.23
2023-02-12T21:49:03.240Z,13.23
2023-02-12T21:51:32.916Z,14.85
2023-02-12T21:54:03.867Z,13.40
2023-02-12T21:56:30.921Z,13.70
2023-02-12T21:59:00.859Z,12.77
2023-02-12T22:01:33.331Z,12.90
2023-02-12T22:04:04.696Z,13.10
2023-02-12T22:06:31.987Z,14.47
2023-02-12T22:09:05.297Z,12.32
2023-02-12T22:11:32.257Z,14.00
2023-02-12T22:13:58.896Z,14.30
2023-02-12T22:16:27.408Z,13.90
2023-02-12T22:18:57.231Z,13.80
2023-02-12T22:21:25.507Z,13.60
2023-02-12T22:23:52.966Z,13.85
2023-02-12T22:26:26.481Z,15.63
2023-02-12T22:28:56.187Z,13.10
2023-02-12T22:31:29.173Z,14.13
2023-02-12T22:34:01.723Z,13.85
2023-02-12T22:36:29.303Z,13.27
2023-02-12T22:39:00.335Z,14.93
2023-02-12T22:41:28.155Z,13.93
2023-02-12T22:43:55.392Z,14.43
2023-02-12T22:46:22.130Z,14.48
2023-02-12T22:48:48.749Z,15.70
2023-02-12T22:51:27.792Z,13.32
2023-02-12T22:53:56.101Z,14.18
2023-02-12T22:56:25.600Z,14.40
2023-02-12T22:59:00.494Z,14.68
2023-02-12T23:01:28.192Z,13.20
2023-02-12T23:03:55.554Z,13.82
2023-02-12T23:06:27.866Z,14.35
2023-02-12T23:08:59.649Z,14.90
2023-02-12T23:11:28.223Z,14.52
2023-02-12T23:13:55.204Z,14.55
2023-02-12T23:16:21.976Z,15.05
2023-02-12T23:18:48.803Z,14.35
2023-02-12T23:21:15.717Z,15.65
2023-02-12T23:23:42.456Z,16.65
2023-02-12T23:26:14.493Z,14.18
2023-02-12T23:28:41.314Z,15.48
2023-02-12T23:31:08.099Z,15.82
2023-02-12T23:33:34.820Z,16.55
2023-02-12T23:36:01.532Z,16.35
2023-02-12T23:38:28.277Z,17.10
2023-02-12T23:40:54.991Z,17.08
2023-02-12T23:43:21.819Z,18.27
2023-02-12T23:45:48.520Z,15.70
2023-02-12T23:48:15.308Z,17.98
2023-02-12T23:50:42.381Z,17.33
2023-02-12T23:53:20.770Z,18.75
2023-02-12T23:55:51.025Z,17.60
2023-02-12T23:58:18.903Z,16.92
